sensor_id;sensor_type;location;lat;lon;timestamp;P1;durP1;ratioP1;P2;durP2;ratioP2
70951;SDS011;69214;55.880;37.542;2023-06-04T00:02:24;2.88;;;0.43;;
70951;SDS011;69214;55.880;37.542;2023-06-04T00:04:50;3.63;;;0.60;;
70951;SDS011;69214;55.880;37.542;2023-06-04T00:07:16;1.83;;;0.30;;
70951;SDS011;69214;55.880;37.542;2023-06-04T00:09:42;2.10;;;0.50;;
70951;SDS011;69214;55.880;37.542;2023-06-04T00:12:09;1.38;;;0.32;;
70951;SDS011;69214;55.880;37.542;2023-06-04T00:14:35;2.28;;;0.47;;
70951;SDS011;69214;55.880;37.542;2023-06-04T00:17:01;1.87;;;0.40;;
70951;SDS011;69214;55.880;37.542;2023-06-04T00:19:27;3.70;;;0.35;;
70951;SDS011;69214;55.880;37.542;2023-06-04T00:21:52;1.02;;;0.30;;
70951;SDS011;69214;55.880;37.542;2023-06-04T00:24:18;1.83;;;0.30;;
70951;SDS011;69214;55.880;37.542;2023-06-04T00:26:44;2.90;;;0.60;;
70951;SDS011;69214;55.880;37.542;2023-06-04T00:29:10;2.17;;;0.47;;
70951;SDS011;69214;55.880;37.542;2023-06-04T00:31:36;1.85;;;0.40;;
70951;SDS011;69214;55.880;37.542;2023-06-04T00:34:05;2.57;;;0.47;;
70951;SDS011;69214;55.880;37.542;2023-06-04T00:36:31;2.95;;;0.40;;
70951;SDS011;69214;55.880;37.542;2023-06-04T00:38:57;3.05;;;0.50;;
70951;SDS011;69214;55.880;37.542;2023-06-04T00:41:22;2.23;;;0.20;;
70951;SDS011;69214;55.880;37.542;2023-06-04T00:43:48;4.55;;;0.50;;
70951;SDS011;69214;55.880;37.542;2023-06-04T00:46:22;2.35;;;0.30;;
70951;SDS011;69214;55.880;37.542;2023-06-04T00:48:50;2.70;;;0.50;;
70951;SDS011;69214;55.880;37.542;2023-06-04T00:51:18;2.30;;;0.37;;
70951;SDS011;69214;55.880;37.542;2023-06-04T00:53:44;2.17;;;0.30;;
70951;SDS011;69214;55.880;37.542;2023-06-04T00:56:10;2.55;;;0.50;;
70951;SDS011;69214;55.880;37.542;2023-06-04T00:58:37;1.88;;;0.50;;
70951;SDS011;69214;55.880;37.542;2023-06-04T01:01:04;3.03;;;0.60;;
70951;SDS011;69214;55.880;37.542;2023-06-04T01:03:36;3.70;;;0.60;;
70951;SDS011;69214;55.880;37.542;2023-06-04T01:06:39;3.75;;;0.52;;
70951;SDS011;69214;55.880;37.542;2023-06-04T01:09:03;2.65;;;0.52;;
70951;SDS011;69214;55.880;37.542;2023-06-04T01:11:33;2.42;;;0.40;;
70951;SDS011;69214;55.880;37.542;2023-06-04T01:14:01;2.30;;;0.43;;
70951;SDS011;69214;55.880;37.542;2023-06-04T01:16:30;3.03;;;0.40;;
70951;SDS011;69214;55.880;37.542;2023-06-04T01:19:04;2.92;;;0.52;;
70951;SDS011;69214;55.880;37.542;2023-06-04T01:21:55;3.55;;;0.50;;
70951;SDS011;69214;55.880;37.542;2023-06-04T01:24:29;1.67;;;0.30;;
70951;SDS011;69214;55.880;37.542;2023-06-04T01:27:02;4.53;;;0.60;;
70951;SDS011;69214;55.880;37.542;2023-06-04T01:29:31;3.47;;;0.43;;
70951;SDS011;69214;55.880;37.542;2023-06-04T01:31:57;2.17;;;0.43;;
70951;SDS011;69214;55.880;37.542;2023-06-04T01:34:23;1.20;;;0.20;;
70951;SDS011;69214;55.880;37.542;2023-06-04T01:36:49;0.83;;;0.30;;
70951;SDS011;69214;55.880;37.542;2023-06-04T01:39:16;1.87;;;0.40;;
70951;SDS011;69214;55.880;37.542;2023-06-04T01:41:42;2.13;;;0.38;;
70951;SDS011;69214;55.880;37.542;2023-06-04T01:44:09;3.03;;;0.40;;
70951;SDS011;69214;55.880;37.542;2023-06-04T01:46:35;1.58;;;0.22;;
70951;SDS011;69214;55.880;37.542;2023-06-04T01:49:01;2.20;;;0.40;;
70951;SDS011;69214;55.880;37.542;2023-06-04T01:51:27;1.23;;;0.20;;
70951;SDS011;69214;55.880;37.542;2023-06-04T01:53:53;2.35;;;0.43;;
70951;SDS011;69214;55.880;37.542;2023-06-04T01:56:19;3.23;;;0.40;;
70951;SDS011;69214;55.880;37.542;2023-06-04T01:58:46;2.20;;;0.50;;
70951;SDS011;69214;55.880;37.542;2023-06-04T02:01:12;6.63;;;0.40;;
70951;SDS011;69214;55.880;37.542;2023-06-04T02:03:38;2.28;;;0.38;;
70951;SDS011;69214;55.880;37.542;2023-06-04T02:06:06;1.52;;;0.30;;
70951;SDS011;69214;55.880;37.542;2023-06-04T02:08:33;2.63;;;0.43;;
70951;SDS011;69214;55.880;37.542;2023-06-04T02:11:00;4.18;;;0.30;;
70951;SDS011;69214;55.880;37.542;2023-06-04T02:13:27;3.38;;;0.30;;
70951;SDS011;69214;55.880;37.542;2023-06-04T02:15:53;2.08;;;0.40;;
70951;SDS011;69214;55.880;37.542;2023-06-04T02:18:19;3.28;;;0.50;;
70951;SDS011;69214;55.880;37.542;2023-06-04T02:20:50;1.63;;;0.33;;
70951;SDS011;69214;55.880;37.542;2023-06-04T02:23:17;1.20;;;0.25;;
70951;SDS011;69214;55.880;37.542;2023-06-04T02:25:44;1.08;;;0.20;;
70951;SDS011;69214;55.880;37.542;2023-06-04T02:28:11;2.70;;;0.50;;
70951;SDS011;69214;55.880;37.542;2023-06-04T02:30:38;1.70;;;0.40;;
70951;SDS011;69214;55.880;37.542;2023-06-04T02:33:04;4.43;;;0.40;;
70951;SDS011;69214;55.880;37.542;2023-06-04T02:35:29;2.45;;;0.30;;
70951;SDS011;69214;55.880;37.542;2023-06-04T02:37:56;3.42;;;0.50;;
70951;SDS011;69214;55.880;37.542;2023-06-04T02:40:26;4.78;;;0.60;;
70951;SDS011;69214;55.880;37.542;2023-06-04T02:42:53;2.67;;;0.50;;
70951;SDS011;69214;55.880;37.542;2023-06-04T02:45:20;4.30;;;0.50;;
70951;SDS011;69214;55.880;37.542;2023-06-04T02:47:47;2.53;;;0.50;;
70951;SDS011;69214;55.880;37.542;2023-06-04T02:50:13;2.35;;;0.50;;
70951;SDS011;69214;55.880;37.542;2023-06-04T02:52:40;1.92;;;0.40;;
70951;SDS011;69214;55.880;37.542;2023-06-04T02:55:09;1.57;;;0.47;;
70951;SDS011;69214;55.880;37.542;2023-06-04T02:57:39;1.15;;;0.30;;
70951;SDS011;69214;55.880;37.542;2023-06-04T03:00:08;1.05;;;0.30;;
70951;SDS011;69214;55.880;37.542;2023-06-04T03:02:41;1.10;;;0.30;;
70951;SDS011;69214;55.880;37.542;2023-06-04T03:05:10;2.25;;;0.30;;
70951;SDS011;69214;55.880;37.542;2023-06-04T03:07:39;1.07;;;0.30;;
70951;SDS011;69214;55.880;37.542;2023-06-04T03:10:06;2.92;;;0.43;;
70951;SDS011;69214;55.880;37.542;2023-06-04T03:12:33;2.88;;;0.50;;
70951;SDS011;69214;55.880;37.542;2023-06-04T03:14:59;1.65;;;0.30;;
70951;SDS011;69214;55.880;37.542;2023-06-04T03:17:26;1.88;;;0.32;;
70951;SDS011;69214;55.880;37.542;2023-06-04T03:19:52;2.47;;;0.53;;
70951;SDS011;69214;55.880;37.542;2023-06-04T03:22:19;0.93;;;0.40;;
70951;SDS011;69214;55.880;37.542;2023-06-04T03:24:44;1.00;;;0.30;;
70951;SDS011;69214;55.880;37.542;2023-06-04T03:27:10;5.87;;;0.40;;
70951;SDS011;69214;55.880;37.542;2023-06-04T03:29:39;0.83;;;0.30;;
70951;SDS011;69214;55.880;37.542;2023-06-04T03:32:09;1.13;;;0.20;;
70951;SDS011;69214;55.880;37.542;2023-06-04T03:34:36;1.08;;;0.30;;
70951;SDS011;69214;55.880;37.542;2023-06-04T03:37:02;0.65;;;0.25;;
70951;SDS011;69214;55.880;37.542;2023-06-04T03:39:28;1.27;;;0.30;;
70951;SDS011;69214;55.880;37.542;2023-06-04T03:41:55;0.95;;;0.30;;
70951;SDS011;69214;55.880;37.542;2023-06-04T03:44:22;0.68;;;0.30;;
70951;SDS011;69214;55.880;37.542;2023-06-04T03:46:49;0.88;;;0.25;;
70951;SDS011;69214;55.880;37.542;2023-06-04T03:49:16;1.67;;;0.40;;
70951;SDS011;69214;55.880;37.542;2023-06-04T03:51:44;1.10;;;0.50;;
70951;SDS011;69214;55.880;37.542;2023-06-04T03:54:10;0.75;;;0.30;;
70951;SDS011;69214;55.880;37.542;2023-06-04T03:56:38;0.90;;;0.40;;
70951;SDS011;69214;55.880;37.542;2023-06-04T03:59:06;0.60;;;0.30;;
70951;SDS011;69214;55.880;37.542;2023-06-04T04:01:31;3.57;;;0.50;;
70951;SDS011;69214;55.880;37.542;2023-06-04T04:03:59;1.13;;;0.40;;
70951;SDS011;69214;55.880;37.542;2023-06-04T04:06:25;1.05;;;0.40;;
70951;SDS011;69214;55.880;37.542;2023-06-04T04:08:52;1.15;;;0.40;;
70951;SDS011;69214;55.880;37.542;2023-06-04T04:11:20;0.98;;;0.40;;
70951;SDS011;69214;55.880;37.542;2023-06-04T04:13:51;0.90;;;0.40;;
70951;SDS011;69214;55.880;37.542;2023-06-04T04:16:18;2.90;;;0.53;;
70951;SDS011;69214;55.880;37.542;2023-06-04T04:18:44;1.40;;;0.57;;
70951;SDS011;69214;55.880;37.542;2023-06-04T04:21:10;1.08;;;0.50;;
70951;SDS011;69214;55.880;37.542;2023-06-04T04:23:37;1.10;;;0.50;;
70951;SDS011;69214;55.880;37.542;2023-06-04T04:26:09;2.25;;;0.77;;
70951;SDS011;69214;55.880;37.542;2023-06-04T04:28:44;1.57;;;0.90;;
70951;SDS011;69214;55.880;37.542;2023-06-04T04:31:11;2.33;;;0.90;;
70951;SDS011;69214;55.880;37.542;2023-06-04T04:33:37;1.90;;;0.90;;
70951;SDS011;69214;55.880;37.542;2023-06-04T04:36:07;2.45;;;0.80;;
70951;SDS011;69214;55.880;37.542;2023-06-04T04:38:39;3.15;;;1.05;;
70951;SDS011;69214;55.880;37.542;2023-06-04T04:41:06;1.53;;;0.90;;
70951;SDS011;69214;55.880;37.542;2023-06-04T04:43:35;2.28;;;1.20;;
70951;SDS011;69214;55.880;37.542;2023-06-04T04:46:24;1.95;;;1.20;;
70951;SDS011;69214;55.880;37.542;2023-06-04T04:48:51;2.33;;;1.10;;
70951;SDS011;69214;55.880;37.542;2023-06-04T04:51:17;2.63;;;1.20;;
70951;SDS011;69214;55.880;37.542;2023-06-04T04:53:43;3.45;;;1.05;;
70951;SDS011;69214;55.880;37.542;2023-06-04T04:56:12;4.43;;;1.20;;
70951;SDS011;69214;55.880;37.542;2023-06-04T04:58:42;2.00;;;1.13;;
70951;SDS011;69214;55.880;37.542;2023-06-04T05:01:10;1.50;;;1.10;;
70951;SDS011;69214;55.880;37.542;2023-06-04T05:03:38;1.63;;;0.90;;
70951;SDS011;69214;55.880;37.542;2023-06-04T05:06:04;3.70;;;1.33;;
70951;SDS011;69214;55.880;37.542;2023-06-04T05:08:31;1.67;;;1.38;;
70951;SDS011;69214;55.880;37.542;2023-06-04T05:10:56;1.90;;;1.23;;
70951;SDS011;69214;55.880;37.542;2023-06-04T05:13:22;2.42;;;1.13;;
70951;SDS011;69214;55.880;37.542;2023-06-04T05:15:53;1.40;;;1.10;;
70951;SDS011;69214;55.880;37.542;2023-06-04T05:18:23;1.67;;;1.40;;
70951;SDS011;69214;55.880;37.542;2023-06-04T05:21:00;1.63;;;1.23;;
70951;SDS011;69214;55.880;37.542;2023-06-04T05:23:29;2.65;;;1.20;;
70951;SDS011;69214;55.880;37.542;2023-06-04T05:26:01;2.08;;;1.20;;
70951;SDS011;69214;55.880;37.542;2023-06-04T05:28:27;2.23;;;1.20;;
70951;SDS011;69214;55.880;37.542;2023-06-04T05:30:53;1.45;;;1.35;;
70951;SDS011;69214;55.880;37.542;2023-06-04T05:33:28;1.10;;;0.90;;
70951;SDS011;69214;55.880;37.542;2023-06-04T05:35:59;1.40;;;1.10;;
70951;SDS011;69214;55.880;37.542;2023-06-04T05:38:29;2.70;;;0.90;;
70951;SDS011;69214;55.880;37.542;2023-06-04T05:40:59;1.75;;;1.20;;
70951;SDS011;69214;55.880;37.542;2023-06-04T05:43:30;1.70;;;1.40;;
70951;SDS011;69214;55.880;37.542;2023-06-04T05:45:56;1.58;;;1.08;;
70951;SDS011;69214;55.880;37.542;2023-06-04T05:48:32;1.30;;;1.20;;
70951;SDS011;69214;55.880;37.542;2023-06-04T05:50:58;1.23;;;1.00;;
70951;SDS011;69214;55.880;37.542;2023-06-04T05:53:24;2.08;;;1.40;;
70951;SDS011;69214;55.880;37.542;2023-06-04T05:55:50;1.65;;;1.00;;
70951;SDS011;69214;55.880;37.542;2023-06-04T05:58:16;1.63;;;1.10;;
70951;SDS011;69214;55.880;37.542;2023-06-04T06:00:42;1.92;;;1.48;;
70951;SDS011;69214;55.880;37.542;2023-06-04T06:03:08;2.35;;;1.30;;
70951;SDS011;69214;55.880;37.542;2023-06-04T06:05:41;1.17;;;1.00;;
70951;SDS011;69214;55.880;37.542;2023-06-04T06:08:07;1.80;;;1.20;;
70951;SDS011;69214;55.880;37.542;2023-06-04T06:10:33;1.10;;;0.88;;
70951;SDS011;69214;55.880;37.542;2023-06-04T06:12:59;1.90;;;1.02;;
70951;SDS011;69214;55.880;37.542;2023-06-04T06:15:28;1.33;;;1.00;;
70951;SDS011;69214;55.880;37.542;2023-06-04T06:17:59;1.35;;;0.90;;
70951;SDS011;69214;55.880;37.542;2023-06-04T06:20:25;0.90;;;0.60;;
70951;SDS011;69214;55.880;37.542;2023-06-04T06:22:51;1.20;;;0.80;;
70951;SDS011;69214;55.880;37.542;2023-06-04T06:25:18;1.00;;;0.80;;
70951;SDS011;69214;55.880;37.542;2023-06-04T06:27:51;2.08;;;1.02;;
70951;SDS011;69214;55.880;37.542;2023-06-04T06:30:19;1.08;;;0.85;;
70951;SDS011;69214;55.880;37.542;2023-06-04T06:32:45;1.40;;;0.77;;
70951;SDS011;69214;55.880;37.542;2023-06-04T06:35:11;1.10;;;0.90;;
70951;SDS011;69214;55.880;37.542;2023-06-04T06:37:37;1.42;;;1.10;;
70951;SDS011;69214;55.880;37.542;2023-06-04T06:40:08;1.50;;;1.20;;
70951;SDS011;69214;55.880;37.542;2023-06-04T06:42:36;1.73;;;1.33;;
70951;SDS011;69214;55.880;37.542;2023-06-04T06:45:02;4.20;;;1.27;;
70951;SDS011;69214;55.880;37.542;2023-06-04T06:47:32;1.35;;;1.17;;
70951;SDS011;69214;55.880;37.542;2023-06-04T06:49:58;2.15;;;1.20;;
70951;SDS011;69214;55.880;37.542;2023-06-04T06:52:25;4.13;;;1.40;;
70951;SDS011;69214;55.880;37.542;2023-06-04T06:54:51;2.03;;;1.38;;
70951;SDS011;69214;55.880;37.542;2023-06-04T06:57:18;1.67;;;1.50;;
70951;SDS011;69214;55.880;37.542;2023-06-04T06:59:46;2.07;;;1.87;;
70951;SDS011;69214;55.880;37.542;2023-06-04T07:02:12;1.70;;;1.60;;
70951;SDS011;69214;55.880;37.542;2023-06-04T07:07:30;2.03;;;1.45;;
70951;SDS011;69214;55.880;37.542;2023-06-04T07:09:56;1.50;;;1.40;;
70951;SDS011;69214;55.880;37.542;2023-06-04T07:12:22;2.88;;;1.50;;
70951;SDS011;69214;55.880;37.542;2023-06-04T07:14:48;2.40;;;2.10;;
70951;SDS011;69214;55.880;37.542;2023-06-04T07:17:13;2.03;;;1.83;;
70951;SDS011;69214;55.880;37.542;2023-06-04T07:19:39;2.00;;;1.80;;
70951;SDS011;69214;55.880;37.542;2023-06-04T07:22:05;2.50;;;2.30;;
70951;SDS011;69214;55.880;37.542;2023-06-04T07:24:31;2.70;;;2.17;;
70951;SDS011;69214;55.880;37.542;2023-06-04T07:27:01;3.33;;;1.52;;
70951;SDS011;69214;55.880;37.542;2023-06-04T07:29:28;2.65;;;1.80;;
70951;SDS011;69214;55.880;37.542;2023-06-04T07:31:53;1.83;;;1.67;;
70951;SDS011;69214;55.880;37.542;2023-06-04T07:34:19;3.25;;;1.67;;
70951;SDS011;69214;55.880;37.542;2023-06-04T07:36:45;1.60;;;1.35;;
70951;SDS011;69214;55.880;37.542;2023-06-04T07:39:12;1.40;;;1.00;;
70951;SDS011;69214;55.880;37.542;2023-06-04T07:41:38;3.57;;;1.00;;
70951;SDS011;69214;55.880;37.542;2023-06-04T07:44:04;1.50;;;0.70;;
70951;SDS011;69214;55.880;37.542;2023-06-04T07:46:30;0.82;;;0.40;;
70951;SDS011;69214;55.880;37.542;2023-06-04T07:48:56;1.47;;;0.50;;
70951;SDS011;69214;55.880;37.542;2023-06-04T07:51:22;0.95;;;0.30;;
70951;SDS011;69214;55.880;37.542;2023-06-04T07:53:48;0.90;;;0.30;;
70951;SDS011;69214;55.880;37.542;2023-06-04T07:56:14;0.98;;;0.20;;
70951;SDS011;69214;55.880;37.542;2023-06-04T07:58:40;0.73;;;0.40;;
70951;SDS011;69214;55.880;37.542;2023-06-04T08:01:06;0.77;;;0.38;;
70951;SDS011;69214;55.880;37.542;2023-06-04T08:03:32;0.85;;;0.10;;
70951;SDS011;69214;55.880;37.542;2023-06-04T08:05:59;0.75;;;0.20;;
70951;SDS011;69214;55.880;37.542;2023-06-04T08:08:26;0.60;;;0.20;;
70951;SDS011;69214;55.880;37.542;2023-06-04T08:10:52;0.97;;;0.23;;
70951;SDS011;69214;55.880;37.542;2023-06-04T08:13:18;0.95;;;0.28;;
70951;SDS011;69214;55.880;37.542;2023-06-04T08:15:44;1.02;;;0.30;;
70951;SDS011;69214;55.880;37.542;2023-06-04T08:18:29;0.70;;;0.17;;
70951;SDS011;69214;55.880;37.542;2023-06-04T08:21:09;0.70;;;0.20;;
70951;SDS011;69214;55.880;37.542;2023-06-04T08:23:56;0.80;;;0.17;;
70951;SDS011;69214;55.880;37.542;2023-06-04T08:26:44;0.63;;;0.20;;
70951;SDS011;69214;55.880;37.542;2023-06-04T08:29:29;0.65;;;0.25;;
70951;SDS011;69214;55.880;37.542;2023-06-04T08:31:55;0.53;;;0.20;;
70951;SDS011;69214;55.880;37.542;2023-06-04T08:34:24;0.63;;;0.10;;
70951;SDS011;69214;55.880;37.542;2023-06-04T08:36:50;0.60;;;0.20;;
70951;SDS011;69214;55.880;37.542;2023-06-04T08:39:16;0.60;;;0.20;;
70951;SDS011;69214;55.880;37.542;2023-06-04T08:41:48;0.60;;;0.20;;
70951;SDS011;69214;55.880;37.542;2023-06-04T08:44:16;2.22;;;0.20;;
70951;SDS011;69214;55.880;37.542;2023-06-04T08:46:44;1.35;;;0.20;;
70951;SDS011;69214;55.880;37.542;2023-06-04T08:49:13;3.08;;;0.43;;
70951;SDS011;69214;55.880;37.542;2023-06-04T08:51:41;1.37;;;0.20;;
70951;SDS011;69214;55.880;37.542;2023-06-04T08:54:08;0.80;;;0.20;;
70951;SDS011;69214;55.880;37.542;2023-06-04T08:56:34;0.52;;;0.20;;
70951;SDS011;69214;55.880;37.542;2023-06-04T08:59:02;0.70;;;0.15;;
70951;SDS011;69214;55.880;37.542;2023-06-04T09:01:31;0.47;;;0.20;;
70951;SDS011;69214;55.880;37.542;2023-06-04T09:04:01;0.40;;;0.10;;
70951;SDS011;69214;55.880;37.542;2023-06-04T09:06:30;0.50;;;0.10;;
70951;SDS011;69214;55.880;37.542;2023-06-04T09:08:58;1.48;;;0.30;;
70951;SDS011;69214;55.880;37.542;2023-06-04T09:11:33;0.68;;;0.20;;
70951;SDS011;69214;55.880;37.542;2023-06-04T09:14:01;0.77;;;0.20;;
70951;SDS011;69214;55.880;37.542;2023-06-04T09:16:32;1.27;;;0.20;;
70951;SDS011;69214;55.880;37.542;2023-06-04T09:19:09;0.70;;;0.10;;
70951;SDS011;69214;55.880;37.542;2023-06-04T09:21:45;1.33;;;0.30;;
70951;SDS011;69214;55.880;37.542;2023-06-04T09:24:42;0.98;;;0.20;;
70951;SDS011;69214;55.880;37.542;2023-06-04T09:27:15;1.30;;;0.30;;
70951;SDS011;69214;55.880;37.542;2023-06-04T09:29:49;1.53;;;0.27;;
70951;SDS011;69214;55.880;37.542;2023-06-04T09:32:23;1.58;;;0.40;;
70951;SDS011;69214;55.880;37.542;2023-06-04T09:34:50;2.30;;;0.30;;
70951;SDS011;69214;55.880;37.542;2023-06-04T09:37:18;1.45;;;0.20;;
70951;SDS011;69214;55.880;37.542;2023-06-04T09:39:56;1.17;;;0.38;;
70951;SDS011;69214;55.880;37.542;2023-06-04T09:42:22;0.77;;;0.20;;
70951;SDS011;69214;55.880;37.542;2023-06-04T09:44:49;1.77;;;0.20;;
70951;SDS011;69214;55.880;37.542;2023-06-04T09:47:15;1.35;;;0.10;;
70951;SDS011;69214;55.880;37.542;2023-06-04T09:49:42;0.63;;;0.10;;
70951;SDS011;69214;55.880;37.542;2023-06-04T09:52:08;1.75;;;0.10;;
70951;SDS011;69214;55.880;37.542;2023-06-04T09:54:37;1.60;;;0.10;;
70951;SDS011;69214;55.880;37.542;2023-06-04T09:57:05;0.60;;;0.20;;
70951;SDS011;69214;55.880;37.542;2023-06-04T09:59:49;0.60;;;0.20;;
70951;SDS011;69214;55.880;37.542;2023-06-04T10:02:19;0.70;;;0.20;;
70951;SDS011;69214;55.880;37.542;2023-06-04T10:04:53;0.65;;;0.10;;
70951;SDS011;69214;55.880;37.542;2023-06-04T10:07:24;2.30;;;0.17;;
70951;SDS011;69214;55.880;37.542;2023-06-04T10:09:51;0.85;;;0.13;;
70951;SDS011;69214;55.880;37.542;2023-06-04T10:12:21;0.82;;;0.20;;
70951;SDS011;69214;55.880;37.542;2023-06-04T10:14:52;0.65;;;0.17;;
70951;SDS011;69214;55.880;37.542;2023-06-04T10:17:22;0.65;;;0.10;;
70951;SDS011;69214;55.880;37.542;2023-06-04T10:19:50;0.77;;;0.20;;
70951;SDS011;69214;55.880;37.542;2023-06-04T10:22:20;0.80;;;0.20;;
70951;SDS011;69214;55.880;37.542;2023-06-04T10:24:46;0.50;;;0.10;;
70951;SDS011;69214;55.880;37.542;2023-06-04T10:27:12;0.60;;;0.17;;
70951;SDS011;69214;55.880;37.542;2023-06-04T10:29:39;0.88;;;0.20;;
70951;SDS011;69214;55.880;37.542;2023-06-04T10:32:05;1.10;;;0.20;;
70951;SDS011;69214;55.880;37.542;2023-06-04T10:34:31;1.40;;;0.20;;
70951;SDS011;69214;55.880;37.542;2023-06-04T10:36:58;0.70;;;0.20;;
70951;SDS011;69214;55.880;37.542;2023-06-04T10:39:25;1.15;;;0.20;;
70951;SDS011;69214;55.880;37.542;2023-06-04T10:44:29;1.00;;;0.10;;
70951;SDS011;69214;55.880;37.542;2023-06-04T10:46:56;1.33;;;0.30;;
70951;SDS011;69214;55.880;37.542;2023-06-04T10:49:29;1.85;;;0.30;;
70951;SDS011;69214;55.880;37.542;2023-06-04T10:51:56;1.73;;;0.20;;
70951;SDS011;69214;55.880;37.542;2023-06-04T10:54:29;1.95;;;0.20;;
70951;SDS011;69214;55.880;37.542;2023-06-04T10:56:58;1.00;;;0.20;;
70951;SDS011;69214;55.880;37.542;2023-06-04T10:59:38;1.08;;;0.15;;
70951;SDS011;69214;55.880;37.542;2023-06-04T11:02:04;1.33;;;0.20;;
70951;SDS011;69214;55.880;37.542;2023-06-04T11:04:31;2.65;;;0.20;;
70951;SDS011;69214;55.880;37.542;2023-06-04T11:07:00;1.85;;;0.20;;
70951;SDS011;69214;55.880;37.542;2023-06-04T11:09:37;1.50;;;0.30;;
70951;SDS011;69214;55.880;37.542;2023-06-04T11:12:13;1.08;;;0.30;;
70951;SDS011;69214;55.880;37.542;2023-06-04T11:14:38;0.43;;;0.20;;
70951;SDS011;69214;55.880;37.542;2023-06-04T11:17:08;2.25;;;0.20;;
70951;SDS011;69214;55.880;37.542;2023-06-04T11:19:38;1.05;;;0.20;;
70951;SDS011;69214;55.880;37.542;2023-06-04T11:22:04;1.80;;;0.20;;
70951;SDS011;69214;55.880;37.542;2023-06-04T11:24:34;0.90;;;0.10;;
70951;SDS011;69214;55.880;37.542;2023-06-04T11:27:00;0.88;;;0.10;;
70951;SDS011;69214;55.880;37.542;2023-06-04T11:29:26;1.65;;;0.22;;
70951;SDS011;69214;55.880;37.542;2023-06-04T11:31:53;1.00;;;0.30;;
70951;SDS011;69214;55.880;37.542;2023-06-04T11:34:22;1.07;;;0.20;;
70951;SDS011;69214;55.880;37.542;2023-06-04T11:36:48;0.77;;;0.20;;
70951;SDS011;69214;55.880;37.542;2023-06-04T11:39:20;1.40;;;0.20;;
70951;SDS011;69214;55.880;37.542;2023-06-04T11:41:47;0.50;;;0.10;;
70951;SDS011;69214;55.880;37.542;2023-06-04T11:44:19;0.60;;;0.20;;
70951;SDS011;69214;55.880;37.542;2023-06-04T11:46:46;1.08;;;0.20;;
70951;SDS011;69214;55.880;37.542;2023-06-04T11:49:17;0.82;;;0.20;;
70951;SDS011;69214;55.880;37.542;2023-06-04T11:51:45;0.77;;;0.10;;
70951;SDS011;69214;55.880;37.542;2023-06-04T11:54:15;0.75;;;0.20;;
70951;SDS011;69214;55.880;37.542;2023-06-04T11:56:42;1.60;;;0.23;;
70951;SDS011;69214;55.880;37.542;2023-06-04T11:59:12;0.80;;;0.20;;
70951;SDS011;69214;55.880;37.542;2023-06-04T12:01:43;1.50;;;0.20;;
70951;SDS011;69214;55.880;37.542;2023-06-04T12:04:16;1.30;;;0.20;;
70951;SDS011;69214;55.880;37.542;2023-06-04T12:06:50;2.25;;;0.28;;
70951;SDS011;69214;55.880;37.542;2023-06-04T12:09:21;1.97;;;0.23;;
70951;SDS011;69214;55.880;37.542;2023-06-04T12:11:47;1.38;;;0.30;;
70951;SDS011;69214;55.880;37.542;2023-06-04T12:14:17;0.95;;;0.20;;
70951;SDS011;69214;55.880;37.542;2023-06-04T12:17:00;0.80;;;0.20;;
70951;SDS011;69214;55.880;37.542;2023-06-04T12:19:46;3.53;;;0.20;;
70951;SDS011;69214;55.880;37.542;2023-06-04T12:22:16;4.03;;;0.30;;
70951;SDS011;69214;55.880;37.542;2023-06-04T12:24:52;1.42;;;0.20;;
70951;SDS011;69214;55.880;37.542;2023-06-04T12:27:20;0.80;;;0.20;;
70951;SDS011;69214;55.880;37.542;2023-06-04T12:29:57;1.25;;;0.20;;
70951;SDS011;69214;55.880;37.542;2023-06-04T12:32:24;1.90;;;0.20;;
70951;SDS011;69214;55.880;37.542;2023-06-04T12:34:51;2.90;;;0.20;;
70951;SDS011;69214;55.880;37.542;2023-06-04T12:37:17;0.57;;;0.10;;
70951;SDS011;69214;55.880;37.542;2023-06-04T12:39:43;0.68;;;0.20;;
70951;SDS011;69214;55.880;37.542;2023-06-04T12:42:09;0.90;;;0.20;;
70951;SDS011;69214;55.880;37.542;2023-06-04T12:44:36;2.80;;;0.23;;
70951;SDS011;69214;55.880;37.542;2023-06-04T12:47:03;0.82;;;0.13;;
70951;SDS011;69214;55.880;37.542;2023-06-04T12:49:29;1.98;;;0.22;;
70951;SDS011;69214;55.880;37.542;2023-06-04T12:51:55;2.30;;;0.30;;
70951;SDS011;69214;55.880;37.542;2023-06-04T12:54:21;3.30;;;0.30;;
70951;SDS011;69214;55.880;37.542;2023-06-04T12:56:47;1.42;;;0.35;;
70951;SDS011;69214;55.880;37.542;2023-06-04T12:59:14;1.10;;;0.30;;
70951;SDS011;69214;55.880;37.542;2023-06-04T13:01:39;1.85;;;0.40;;
70951;SDS011;69214;55.880;37.542;2023-06-04T13:04:06;2.50;;;0.30;;
70951;SDS011;69214;55.880;37.542;2023-06-04T13:06:33;3.22;;;0.30;;
70951;SDS011;69214;55.880;37.542;2023-06-04T13:09:01;3.17;;;0.30;;
70951;SDS011;69214;55.880;37.542;2023-06-04T13:11:28;1.00;;;0.30;;
70951;SDS011;69214;55.880;37.542;2023-06-04T13:13:54;2.05;;;0.38;;
70951;SDS011;69214;55.880;37.542;2023-06-04T13:16:20;1.33;;;0.30;;
70951;SDS011;69214;55.880;37.542;2023-06-04T13:18:46;1.33;;;0.20;;
70951;SDS011;69214;55.880;37.542;2023-06-04T13:21:12;1.40;;;0.10;;
70951;SDS011;69214;55.880;37.542;2023-06-04T13:23:38;0.70;;;0.20;;
70951;SDS011;69214;55.880;37.542;2023-06-04T13:26:03;2.97;;;0.30;;
70951;SDS011;69214;55.880;37.542;2023-06-04T13:28:29;1.08;;;0.30;;
70951;SDS011;69214;55.880;37.542;2023-06-04T13:30:55;1.33;;;0.13;;
70951;SDS011;69214;55.880;37.542;2023-06-04T13:33:21;0.68;;;0.10;;
70951;SDS011;69214;55.880;37.542;2023-06-04T13:35:47;0.82;;;0.20;;
70951;SDS011;69214;55.880;37.542;2023-06-04T13:38:13;0.98;;;0.20;;
70951;SDS011;69214;55.880;37.542;2023-06-04T13:40:39;2.67;;;0.20;;
70951;SDS011;69214;55.880;37.542;2023-06-04T13:43:05;1.65;;;0.20;;
70951;SDS011;69214;55.880;37.542;2023-06-04T13:45:34;1.27;;;0.20;;
70951;SDS011;69214;55.880;37.542;2023-06-04T13:48:00;0.98;;;0.20;;
70951;SDS011;69214;55.880;37.542;2023-06-04T13:50:31;1.23;;;0.20;;
70951;SDS011;69214;55.880;37.542;2023-06-04T13:52:57;0.98;;;0.30;;
70951;SDS011;69214;55.880;37.542;2023-06-04T13:55:23;1.50;;;0.30;;
70951;SDS011;69214;55.880;37.542;2023-06-04T13:57:49;1.40;;;0.20;;
70951;SDS011;69214;55.880;37.542;2023-06-04T14:00:14;1.43;;;0.20;;
70951;SDS011;69214;55.880;37.542;2023-06-04T14:02:41;1.40;;;0.30;;
70951;SDS011;69214;55.880;37.542;2023-06-04T14:05:06;1.42;;;0.30;;
70951;SDS011;69214;55.880;37.542;2023-06-04T14:07:33;1.33;;;0.20;;
70951;SDS011;69214;55.880;37.542;2023-06-04T14:09:58;1.27;;;0.20;;
70951;SDS011;69214;55.880;37.542;2023-06-04T14:12:25;1.20;;;0.28;;
70951;SDS011;69214;55.880;37.542;2023-06-04T14:14:50;0.65;;;0.20;;
70951;SDS011;69214;55.880;37.542;2023-06-04T14:17:16;3.05;;;0.40;;
70951;SDS011;69214;55.880;37.542;2023-06-04T14:19:43;1.43;;;0.30;;
70951;SDS011;69214;55.880;37.542;2023-06-04T14:22:11;2.30;;;0.50;;
70951;SDS011;69214;55.880;37.542;2023-06-04T14:24:39;2.47;;;0.50;;
70951;SDS011;69214;55.880;37.542;2023-06-04T14:27:06;1.88;;;0.30;;
70951;SDS011;69214;55.880;37.542;2023-06-04T14:29:32;2.08;;;0.28;;
70951;SDS011;69214;55.880;37.542;2023-06-04T14:31:58;1.37;;;0.30;;
70951;SDS011;69214;55.880;37.542;2023-06-04T14:34:24;2.05;;;0.22;;
70951;SDS011;69214;55.880;37.542;2023-06-04T14:36:50;1.02;;;0.10;;
70951;SDS011;69214;55.880;37.542;2023-06-04T14:39:16;4.63;;;0.40;;
70951;SDS011;69214;55.880;37.542;2023-06-04T14:41:42;1.57;;;0.23;;
70951;SDS011;69214;55.880;37.542;2023-06-04T14:44:08;2.20;;;0.20;;
70951;SDS011;69214;55.880;37.542;2023-06-04T14:46:33;2.20;;;0.25;;